Etusivu
METAR-TAF:

METAR-TAF

Lentoasemat :

Aransas County Airport

Rockport, Texas, Yhdysvallat

Leveyspiiri: 28-05-01N, Pituuspiiri: 097-02-47W, korkeus merenpinnasta: 7 m

Tämänhetkinen sää

Tämä raportti tehtiin 34 minuuttia sitten, kello 07.53 UTC
Tuuli 5 kn etelästä
Lämpötila 21°C
Kosteus 83%
Ilmanpaine 1015 hPa
Näkyvyys: 8.0 km
Muutamia pilviä 2600 ft:n korkeudessa
Hajonneita pilviä 5000 ft:n korkeudessa
usvaa

METAR: KRKP 260753Z AUTO 18005KT 5SM HZ FEW026 BKN050 21/18 A2997 RMK AO2 SLP150 T02060178

Aika: 02:27 (08:27 UTC)


TAF: puuttuu

Säähavainnot ja -ennusteet yli 4000 lentoasemalta (METAR- ja TAF-raportit).

Käytössä olevat sääasemat on merkitty karttaan keltaisilla ja punaisilla pisteillä.

Aseta hiiri pisteen päälle nähdäksesi sääaseman nimen.

Klikkaa sitten nähdäksesi säähavainnot ja -ennusteet.

Kartan vaihtaminen: klikkaa mustalla rastilla varustettuja vihreitä pisteitä, niin voit zoomata sisään; viivalla varustettua vihreää pistettä, niin voit zoomata ulos tai vihreitä nuolia, niin pääset viereisille kartoille.


METAR-TAF: